N10 weather

Perkiomen Valley Airport
Collegeville, Pennsylvania, United States

Public forecast

Using degrees Fahrenheit for public forecast. Weather courtesy of forecast.io.

METAR (pilot weather report)

Closest report is Heritage Field, 6.2 nm (11.4 km) WNW. Retrieved 2019/07/23 16:01 UTC (42 minutes ago):

KPTW 231601Z AUTO VRB05KT 10SM FEW021 SCT026 OVC034 23/19 A2987 RMK AO2 T02280189

TAF (pilot weather forecast)

Closest forecast is Northeast Philadelphia Airport, 20.6 nm (38.2 km) ESE. Retrieved 2019/07/23 12:40 UTC (4 hours ago):

TAF KPNE 231138Z 2312/2412 30006KT P6SM VCSH OVC040 TEMPO 2312/2315 BKN015 FM231900 VRB03KT P6SM OVC040 FM240300 03005KT P6SM BKN050 FM240900 01006KT P6SM BKN100